Time;durP1;ratioP1;P1;durP2;ratioP2;P2;SDS_P1;SDS_P2;PMS_P1;PMS_P2;Temp;Humidity;BMP_temperature;BMP_pressure;BME280_temperature;BME280_humidity;BME280_pressure;Samples;Min_cycle;Max_cycle;Signal;HPM_P1;HPM_P2
2023/09/09 00:02:02;;;;;;;;;;;;;;;18.63;100.00;100553.56;4933192;28;20417;-83
2023/09/09 00:04:28;;;;;;;;;;;;;;;18.52;100.00;100558.63;4948251;28;20001;-84
2023/09/09 00:06:53;;;;;;;;;;;;;;;18.57;100.00;100590.41;4931252;29;20345;-85
2023/09/09 00:09:19;;;;;;;;;;;;;;;18.62;100.00;100549.22;4966635;28;19911;-84
2023/09/09 00:11:44;;;;;;;;;;;;;;;18.74;100.00;100569.06;4936448;29;19957;-86
2023/09/09 00:14:09;;;;;;;;;;;;;;;18.80;100.00;100519.56;4950773;28;19961;-84
2023/09/09 00:16:35;;;;;;;;;;;;;;;18.70;100.00;100516.47;4934977;29;20280;-85
2023/09/09 00:19:00;;;;;;;;;;;;;;;18.67;100.00;100525.84;4935980;28;19917;-84
2023/09/09 00:21:25;;;;;;;;;;;;;;;18.68;100.00;100549.16;4951030;28;19949;-85
2023/09/09 00:23:51;;;;;;;;;;;;;;;18.84;100.00;100503.69;4936032;29;20004;-85
2023/09/09 00:26:16;;;;;;;;;;;;;;;18.76;100.00;100502.06;4938504;28;20272;-83
2023/09/09 00:28:42;;;;;;;;;;;;;;;18.73;100.00;100502.50;4936490;29;19918;-82
2023/09/09 00:31:07;;;;;;;;;;;;;;;18.70;100.00;100495.66;4969502;28;19973;-82
2023/09/09 00:33:33;;;;;;;;;;;;;;;18.65;100.00;100498.22;4937823;29;20009;-85
2023/09/09 00:36:02;;;;;;;;;;;;;;;18.65;100.00;100510.91;4960103;28;19933;-84
2023/09/09 00:38:27;;;;;;;;;;;;;;;18.54;100.00;100524.09;4937898;29;19915;-83
2023/09/09 00:41:12;;;;;;;;;;;;;;;18.40;100.00;100559.53;4933707;29;19914;-85
2023/09/09 00:43:40;;;;;;;;;;;;;;;18.13;100.00;100684.81;4962309;28;19918;-84
2023/09/09 00:46:09;;;;;;;;;;;;;;;17.85;100.00;100778.81;4949480;28;20397;-84
2023/09/09 00:48:35;;;;;;;;;;;;;;;17.63;100.00;100846.50;4946484;28;20547;-86
2023/09/09 00:51:00;;;;;;;;;;;;;;;17.46;100.00;100873.03;4949792;28;20303;-84
2023/09/09 00:53:26;;;;;;;;;;;;;;;17.24;100.00;100901.22;4937236;29;19918;-84
2023/09/09 00:55:52;;;;;;;;;;;;;;;17.15;100.00;100929.41;4953466;28;19918;-83
2023/09/09 00:58:18;;;;;;;;;;;;;;;17.21;100.00;100945.63;4936370;28;19925;-84
2023/09/09 01:00:43;;;;;;;;;;;;;;;17.44;100.00;100955.25;4926932;29;19917;-84
2023/09/09 01:03:09;;;;;;;;;;;;;;;17.45;100.00;100881.38;4949450;28;20124;-83
2023/09/09 01:05:36;;;;;;;;;;;;;;;17.48;100.00;100875.53;4932592;29;19921;-85
2023/09/09 01:08:01;;;;;;;;;;;;;;;17.33;100.00;100891.09;4968216;28;19918;-85
2023/09/09 01:10:27;;;;;;;;;;;;;;;17.18;100.00;100897.47;4936938;29;20560;-86
2023/09/09 01:12:53;;;;;;;;;;;;;;;17.13;100.00;100912.59;4937224;29;20020;-85
2023/09/09 01:15:18;;;;;;;;;;;;;;;17.16;100.00;100926.53;4953053;28;19956;-84
2023/09/09 01:17:44;;;;;;;;;;;;;;;17.14;100.00;100907.00;4936213;29;20300;-84
2023/09/09 01:20:14;;;;;;;;;;;;;;;17.12;100.00;100892.91;4953062;28;19914;-82
2023/09/09 01:22:44;;;;;;;;;;;;;;;16.99;100.00;100885.56;4952450;28;19973;-83
2023/09/09 01:25:12;;;;;;;;;;;;;;;16.85;100.00;100925.13;4953669;28;20013;-84
2023/09/09 01:27:38;;;;;;;;;;;;;;;16.75;100.00;100945.38;4952280;28;20005;-83
2023/09/09 01:30:03;;;;;;;;;;;;;;;16.64;100.00;100950.25;4952541;28;19960;-84
2023/09/09 01:32:29;;;;;;;;;;;;;;;16.54;100.00;100986.69;4968666;28;20042;-85
2023/09/09 01:34:55;;;;;;;;;;;;;;;16.42;100.00;100989.91;4952627;28;19915;-85
2023/09/09 01:37:20;;;;;;;;;;;;;;;16.33;100.00;101009.94;4951160;28;19910;-83
2023/09/09 01:39:46;;;;;;;;;;;;;;;16.24;100.00;101079.28;4953005;28;20013;-84
2023/09/09 01:42:11;;;;;;;;;;;;;;;16.18;100.00;101095.41;4952435;28;19918;-83
2023/09/09 01:44:37;;;;;;;;;;;;;;;16.10;100.00;101119.75;4954146;28;19941;-85
2023/09/09 01:47:02;;;;;;;;;;;;;;;16.01;100.00;101133.34;4936199;28;19910;-84
2023/09/09 01:49:28;;;;;;;;;;;;;;;15.93;100.00;101135.28;4937551;29;19914;-82
2023/09/09 01:51:53;;;;;;;;;;;;;;;15.85;100.00;101147.00;4955108;28;20352;-85
2023/09/09 01:54:18;;;;;;;;;;;;;;;15.78;100.00;101157.69;4953835;28;19922;-84
2023/09/09 01:56:43;;;;;;;;;;;;;;;15.70;100.00;101157.75;4939612;28;19926;-86
2023/09/09 01:59:09;;;;;;;;;;;;;;;15.62;100.00;101147.06;4939455;28;20074;-84
2023/09/09 02:01:34;;;;;;;;;;;;;;;15.57;100.00;101146.81;4935920;29;20534;-85
2023/09/09 02:03:59;;;;;;;;;;;;;;;15.53;100.00;101156.25;4951722;28;19922;-86
2023/09/09 02:06:26;;;;;;;;;;;;;;;15.48;100.00;101159.50;4951178;28;19953;-85
2023/09/09 02:08:51;;;;;;;;;;;;;;;15.41;100.00;101155.88;4967843;28;19957;-86
2023/09/09 02:11:17;;;;;;;;;;;;;;;15.37;100.00;101166.16;4951754;28;19949;-85
2023/09/09 02:13:43;;;;;;;;;;;;;;;15.32;100.00;101167.75;4936049;29;19966;-84
2023/09/09 02:16:08;;;;;;;;;;;;;;;15.26;100.00;101168.47;4951659;28;19911;-83
2023/09/09 02:18:37;;;;;;;;;;;;;;;15.22;100.00;101175.22;4951647;28;19918;-85
2023/09/09 02:21:03;;;;;;;;;;;;;;;15.18;100.00;101186.34;4935636;28;19914;-84
2023/09/09 02:23:28;;;;;;;;;;;;;;;15.13;100.00;101169.09;4935928;29;19921;-83
2023/09/09 02:25:54;;;;;;;;;;;;;;;15.11;100.00;101171.13;4952082;28;19914;-86
2023/09/09 02:28:19;;;;;;;;;;;;;;;15.09;100.00;101165.94;4951079;28;20524;-85
2023/09/09 02:30:44;;;;;;;;;;;;;;;15.08;100.00;101163.44;4947684;28;19925;-85
2023/09/09 02:33:10;;;;;;;;;;;;;;;15.04;100.00;101154.91;4951616;28;20339;-83
2023/09/09 02:35:40;;;;;;;;;;;;;;;15.00;100.00;101156.25;4967341;28;19925;-83
2023/09/09 02:38:05;;;;;;;;;;;;;;;14.95;100.00;101158.66;4948416;28;20448;-82
2023/09/09 02:40:31;;;;;;;;;;;;;;;14.95;100.00;101159.50;4951687;28;20007;-85
2023/09/09 02:42:56;;;;;;;;;;;;;;;14.88;100.00;101146.97;4951411;28;19925;-86
2023/09/09 02:45:21;;;;;;;;;;;;;;;14.90;100.00;101171.81;4936318;28;19910;-84
2023/09/09 02:47:46;;;;;;;;;;;;;;;14.84;100.00;101154.53;4935036;29;19921;-84
2023/09/09 02:50:12;;;;;;;;;;;;;;;14.81;100.00;101152.22;4935765;28;20389;-85
2023/09/09 02:52:37;;;;;;;;;;;;;;;14.71;100.00;101168.59;4967481;28;19921;-86
2023/09/09 02:55:03;;;;;;;;;;;;;;;14.68;100.00;101166.28;4951448;28;19914;-86
2023/09/09 02:57:28;;;;;;;;;;;;;;;14.66;100.00;101154.88;4951413;28;19919;-85
2023/09/09 02:59:56;;;;;;;;;;;;;;;14.64;100.00;101150.69;4950619;28;19918;-85
2023/09/09 03:02:21;;;;;;;;;;;;;;;14.64;100.00;101156.91;4934491;28;20369;-85
2023/09/09 03:04:47;;;;;;;;;;;;;;;14.67;100.00;101164.59;4934433;29;19914;-85
2023/09/09 03:07:12;;;;;;;;;;;;;;;14.61;100.00;101151.03;4933838;28;20356;-85
2023/09/09 03:09:38;;;;;;;;;;;;;;;14.57;100.00;101150.56;4934669;29;19915;-84
2023/09/09 03:12:05;;;;;;;;;;;;;;;14.52;100.00;101143.00;4934314;28;20351;-85
2023/09/09 03:14:30;;;;;;;;;;;;;;;14.49;100.00;101139.84;4934130;29;19941;-83
2023/09/09 03:16:56;;;;;;;;;;;;;;;14.47;100.00;101136.47;4950082;28;20377;-85
2023/09/09 03:19:22;;;;;;;;;;;;;;;14.41;100.00;101134.53;4950256;28;19973;-85
2023/09/09 03:21:47;;;;;;;;;;;;;;;14.35;100.00;101136.91;4950763;28;19914;-86
2023/09/09 03:24:12;;;;;;;;;;;;;;;14.33;100.00;101132.75;4950341;28;20525;-85
2023/09/09 03:26:38;;;;;;;;;;;;;;;14.30;100.00;101136.59;4949978;28;19914;-84
2023/09/09 03:29:03;;;;;;;;;;;;;;;14.33;100.00;101152.38;4950207;28;19915;-85
2023/09/09 03:31:28;;;;;;;;;;;;;;;14.29;100.00;101139.47;4934962;29;19922;-85
2023/09/09 03:33:53;;;;;;;;;;;;;;;14.29;100.00;101144.84;4934559;29;19918;-85
2023/09/09 03:36:19;;;;;;;;;;;;;;;14.25;100.00;101136.28;4965923;28;19910;-83
2023/09/09 03:38:44;;;;;;;;;;;;;;;14.23;100.00;101134.81;4966214;28;19922;-86
2023/09/09 03:41:10;;;;;;;;;;;;;;;14.20;100.00;101135.16;4967082;28;19925;-86
2023/09/09 03:43:37;;;;;;;;;;;;;;;14.16;100.00;101134.66;4935133;29;19915;-86
2023/09/09 03:46:03;;;;;;;;;;;;;;;14.11;100.00;101129.00;4951173;28;19911;-85
2023/09/09 03:48:29;;;;;;;;;;;;;;;14.16;100.00;101148.09;4966259;28;19914;-85
2023/09/09 03:51:02;;;;;;;;;;;;;;;14.14;100.00;101145.59;4950803;28;19911;-87
2023/09/09 03:53:28;;;;;;;;;;;;;;;14.14;100.00;101147.44;4950790;28;19926;-86
2023/09/09 03:55:54;;;;;;;;;;;;;;;14.09;100.00;101141.75;4951016;28;19918;-85
2023/09/09 03:58:20;;;;;;;;;;;;;;;14.08;100.00;101142.78;4950251;28;20531;-86
2023/09/09 04:00:46;;;;;;;;;;;;;;;14.08;100.00;101137.41;4954569;28;19914;-86
2023/09/09 04:03:12;;;;;;;;;;;;;;;14.03;100.00;101139.78;4938330;28;20459;-87
2023/09/09 04:05:38;;;;;;;;;;;;;;;14.01;100.00;101133.75;4955156;28;19914;-86
2023/09/09 04:08:08;;;;;;;;;;;;;;;13.96;100.00;101142.34;4937895;28;19914;-87
2023/09/09 04:10:33;;;;;;;;;;;;;;;13.93;100.00;101138.16;4938749;29;19964;-86
2023/09/09 04:12:59;;;;;;;;;;;;;;;13.86;100.00;101137.19;4938493;29;19914;-85
2023/09/09 04:15:24;;;;;;;;;;;;;;;13.85;100.00;101140.88;4938089;28;20061;-86
2023/09/09 04:17:49;;;;;;;;;;;;;;;13.87;100.00;101138.84;4954019;28;19921;-86
2023/09/09 04:20:15;;;;;;;;;;;;;;;13.84;100.00;101144.56;4954272;28;19915;-86
2023/09/09 04:22:40;;;;;;;;;;;;;;;13.79;100.00;101132.66;4938720;29;19922;-86
2023/09/09 04:25:06;;;;;;;;;;;;;;;13.79;100.00;101135.34;4938205;28;19987;-87
2023/09/09 04:27:31;;;;;;;;;;;;;;;13.79;100.00;101140.72;4930436;29;19918;-86
2023/09/09 04:29:57;;;;;;;;;;;;;;;13.75;100.00;101131.38;4954491;28;19921;-86
2023/09/09 04:32:22;;;;;;;;;;;;;;;13.73;100.00;101131.53;4954061;28;19915;-86
2023/09/09 04:34:48;;;;;;;;;;;;;;;13.76;100.00;101136.53;4954170;28;20392;-86
2023/09/09 04:37:14;;;;;;;;;;;;;;;13.75;100.00;101140.25;4953191;28;20292;-86
2023/09/09 04:39:39;;;;;;;;;;;;;;;13.74;100.00;101138.56;4954014;28;20434;-87
2023/09/09 04:42:05;;;;;;;;;;;;;;;13.75;100.00;101137.56;4953837;28;20019;-87
2023/09/09 04:44:30;;;;;;;;;;;;;;;13.81;100.00;101158.31;4938340;29;19953;-87
2023/09/09 04:46:55;;;;;;;;;;;;;;;13.73;100.00;101143.09;4938585;29;19939;-86
2023/09/09 04:49:22;;;;;;;;;;;;;;;13.73;100.00;101136.91;4937791;28;20009;-86
2023/09/09 04:51:48;;;;;;;;;;;;;;;13.73;100.00;101143.09;4938456;29;19914;-87
2023/09/09 04:54:13;;;;;;;;;;;;;;;13.83;100.00;101167.03;4938849;28;19937;-86
2023/09/09 04:56:39;;;;;;;;;;;;;;;13.92;100.00;101176.72;4937677;28;20406;-84
2023/09/09 04:59:04;;;;;;;;;;;;;;;13.99;100.00;101176.88;4953622;28;20608;-86
2023/09/09 05:01:29;;;;;;;;;;;;;;;14.04;100.00;101170.97;4946045;28;19922;-86
2023/09/09 05:03:55;;;;;;;;;;;;;;;14.08;100.00;101161.56;4951160;28;19965;-86
2023/09/09 05:06:20;;;;;;;;;;;;;;;14.14;100.00;101158.16;4952106;28;20339;-87
2023/09/09 05:08:46;;;;;;;;;;;;;;;14.20;100.00;101159.34;4953267;28;19922;-86
2023/09/09 05:11:12;;;;;;;;;;;;;;;14.28;100.00;101159.28;4952078;28;19914;-86
2023/09/09 05:13:37;;;;;;;;;;;;;;;14.33;100.00;101157.75;4953431;28;20009;-85
2023/09/09 05:16:03;;;;;;;;;;;;;;;14.41;100.00;101161.38;4953700;28;19958;-85
2023/09/09 05:18:28;;;;;;;;;;;;;;;14.48;100.00;101156.97;4952827;28;19910;-85
2023/09/09 05:20:53;;;;;;;;;;;;;;;14.53;100.00;101151.91;4937287;29;19918;-86
2023/09/09 05:23:19;;;;;;;;;;;;;;;14.59;100.00;101148.53;4937215;28;19961;-85
2023/09/09 05:25:44;;;;;;;;;;;;;;;14.82;100.00;101158.44;4953461;28;19922;-85
2023/09/09 05:28:09;;;;;;;;;;;;;;;15.16;100.00;101155.28;4936203;28;19916;-84
2023/09/09 05:30:38;;;;;;;;;;;;;;;15.29;100.00;101128.59;4953137;28;20005;-85
2023/09/09 05:33:03;;;;;;;;;;;;;;;15.35;100.00;101118.94;4953141;28;19910;-85
2023/09/09 05:35:28;;;;;;;;;;;;;;;15.38;100.00;101100.59;4936786;28;20022;-86
2023/09/09 05:37:54;;;;;;;;;;;;;;;15.48;100.00;101099.47;4936452;29;19915;-86
2023/09/09 05:40:19;;;;;;;;;;;;;;;15.60;100.00;101088.06;4952492;28;20724;-85
2023/09/09 05:42:45;;;;;;;;;;;;;;;15.78;100.00;101100.28;4936724;29;20380;-87
2023/09/09 05:45:11;;;;;;;;;;;;;;;15.90;100.00;101076.44;4952769;28;19918;-86
2023/09/09 05:47:38;;;;;;;;;;;;;;;16.03;100.00;101066.63;4967910;28;19976;-86
2023/09/09 05:50:05;;;;;;;;;;;;;;;16.21;100.00;101047.34;4936761;29;20020;-85
2023/09/09 05:52:30;;;;;;;;;;;;;;;16.33;100.00;101036.06;4936499;29;19926;-88
2023/09/09 05:54:56;;;;;;;;;;;;;;;16.53;100.00;101037.06;4952844;28;19914;-86
2023/09/09 05:57:21;;;;;;;;;;;;;;;17.49;100.00;101044.56;4953446;28;19945;-85
2023/09/09 05:59:47;;;;;;;;;;;;;;;18.87;100.00;100968.47;4953204;28;19914;-85
2023/09/09 06:02:14;;;;;;;;;;;;;;;20.11;100.00;100850.75;4936657;28;20291;-85
2023/09/09 06:04:39;;;;;;;;;;;;;;;21.08;100.00;100720.59;4936486;29;19993;-86
2023/09/09 06:07:04;;;;;;;;;;;;;;;21.60;100.00;100444.81;4948461;28;20005;-87
2023/09/09 06:09:29;;;;;;;;;;;;;;;22.00;100.00;100272.66;4952073;28;20388;-85
2023/09/09 06:11:55;;;;;;;;;;;;;;;22.37;100.00;100076.31;4936385;29;20357;-87
2023/09/09 06:14:20;;;;;;;;;;;;;;;22.87;100.00;99955.38;4952218;28;19925;-86
2023/09/09 06:16:46;;;;;;;;;;;;;;;22.89;100.00;99811.72;4935708;29;19965;-86
2023/09/09 06:19:11;;;;;;;;;;;;;;;22.39;100.00;99671.72;4936077;28;19920;-86
2023/09/09 06:21:37;;;;;;;;;;;;;;;23.41;100.00;99899.84;4952094;28;19957;-86
2023/09/09 06:24:03;;;;;;;;;;;;;;;23.56;100.00;99748.16;4935546;29;20009;-87
2023/09/09 06:26:32;;;;;;;;;;;;;;;23.84;100.00;99625.25;4967247;28;20013;-86
2023/09/09 06:28:57;;;;;;;;;;;;;;;22.61;100.00;99645.13;4951696;28;19914;-87
2023/09/09 06:31:23;;;;;;;;;;;;;;;23.78;100.00;99835.09;4967497;28;19981;-87
2023/09/09 06:33:48;;;;;;;;;;;;;;;23.82;99.48;99677.31;4952729;28;19915;-87
2023/09/09 06:36:13;;;;;;;;;;;;;;;23.51;96.11;99472.22;4951362;28;19920;-86
2023/09/09 06:38:40;;;;;;;;;;;;;;;23.06;98.04;99637.31;4947854;28;19923;-87
2023/09/09 06:41:05;;;;;;;;;;;;;;;23.08;97.97;99712.16;4948738;28;20002;-87
2023/09/09 06:43:31;;;;;;;;;;;;;;;22.90;98.57;99786.16;4951767;28;19974;-85
2023/09/09 06:45:56;;;;;;;;;;;;;;;23.36;96.60;99762.56;4936271;29;19997;-86
2023/09/09 06:48:22;;;;;;;;;;;;;;;23.36;98.47;99946.94;4951668;28;20361;-86
2023/09/09 06:50:47;;;;;;;;;;;;;;;23.74;96.18;99882.22;4952323;28;19915;-86
2023/09/09 06:53:13;;;;;;;;;;;;;;;22.69;99.70;99943.03;4952024;28;20513;-86
2023/09/09 06:55:39;;;;;;;;;;;;;;;22.90;97.87;99868.59;4952211;28;19970;-86
2023/09/09 06:58:04;;;;;;;;;;;;;;;22.99;97.28;99854.50;4951439;28;20040;-86
2023/09/09 07:00:29;;;;;;;;;;;;;;;22.65;99.99;100004.50;4968024;28;20254;-86
2023/09/09 07:02:55;;;;;;;;;;;;;;;22.36;100.00;99965.91;4951658;28;19922;-86
2023/09/09 07:05:20;;;;;;;;;;;;;;;22.29;100.00;100064.03;4943905;28;19981;-85
2023/09/09 07:07:45;;;;;;;;;;;;;;;22.97;100.00;100220.31;4935257;29;19914;-86
2023/09/09 07:10:11;;;;;;;;;;;;;;;23.36;100.00;100170.28;4951891;28;19918;-86
2023/09/09 07:12:36;;;;;;;;;;;;;;;23.83;97.80;100093.19;4935248;29;19915;-86
2023/09/09 07:15:01;;;;;;;;;;;;;;;24.34;97.13;100156.09;4951673;28;20008;-86
2023/09/09 07:17:27;;;;;;;;;;;;;;;24.78;96.59;100207.53;4950762;28;19915;-86
2023/09/09 07:19:52;;;;;;;;;;;;;;;24.55;92.07;99848.66;4935901;29;19914;-86
2023/09/09 07:22:17;;;;;;;;;;;;;;;24.84;92.82;99993.53;4951742;28;20278;-86
2023/09/09 07:24:42;;;;;;;;;;;;;;;25.04;92.84;100032.81;4934745;29;20032;-88
2023/09/09 07:27:08;;;;;;;;;;;;;;;24.54;89.50;99702.44;4949800;28;19921;-88
2023/09/09 07:29:33;;;;;;;;;;;;;;;24.48;86.54;99489.94;4950143;28;19965;-87
2023/09/09 07:31:58;;;;;;;;;;;;;;;24.65;86.20;99585.84;4934446;29;20373;-88
2023/09/09 07:34:24;;;;;;;;;;;;;;;24.54;88.06;99720.72;4933470;28;19914;-88
2023/09/09 07:36:50;;;;;;;;;;;;;;;23.95;88.86;99720.34;4950209;28;19914;-88
2023/09/09 07:39:16;;;;;;;;;;;;;;;23.48;88.26;99508.97;4950082;28;20383;-88
2023/09/09 07:41:41;;;;;;;;;;;;;;;24.20;89.65;99860.44;4950592;28;19945;-89
2023/09/09 07:44:06;;;;;;;;;;;;;;;23.41;90.51;99761.75;4934638;29;20010;-88
2023/09/09 07:46:32;;;;;;;;;;;;;;;23.76;89.11;99752.81;4933990;28;19934;-88
2023/09/09 07:48:57;;;;;;;;;;;;;;;24.40;87.44;99789.47;4934937;29;20000;-88
2023/09/09 07:51:22;;;;;;;;;;;;;;;23.81;86.13;99501.25;4934531;28;19969;-88
2023/09/09 07:53:48;;;;;;;;;;;;;;;24.53;88.76;99972.81;4950282;28;19914;-88
2023/09/09 07:56:13;;;;;;;;;;;;;;;24.56;85.57;99721.22;4949989;28;20283;-89
2023/09/09 07:58:38;;;;;;;;;;;;;;;24.71;84.77;99702.06;4933998;29;19925;-88
2023/09/09 08:01:06;;;;;;;;;;;;;;;24.07;86.21;99679.16;4933639;29;20454;-88
2023/09/09 08:03:32;;;;;;;;;;;;;;;24.97;85.50;99865.72;4949577;28;19911;-88
2023/09/09 08:06:02;;;;;;;;;;;;;;;24.68;83.56;99618.03;4934231;29;19915;-88
2023/09/09 08:08:28;;;;;;;;;;;;;;;25.59;81.66;99697.63;4965473;28;19918;-88
2023/09/09 08:10:53;;;;;;;;;;;;;;;25.89;79.35;99520.72;4950137;28;19966;-88
2023/09/09 08:13:18;;;;;;;;;;;;;;;25.27;78.46;99274.81;4950132;28;19919;-88
2023/09/09 08:15:43;;;;;;;;;;;;;;;25.94;78.41;99517.09;4934273;29;20861;-88
2023/09/09 08:18:09;;;;;;;;;;;;;;;26.08;76.82;99408.63;4933770;29;19981;-89
2023/09/09 08:20:34;;;;;;;;;;;;;;;27.23;77.00;99777.81;4934015;28;19925;-88
2023/09/09 08:22:59;;;;;;;;;;;;;;;27.35;74.79;99523.34;4956849;28;19976;-88
2023/09/09 08:25:26;;;;;;;;;;;;;;;26.77;76.31;99569.56;4951604;28;20331;-88
2023/09/09 08:27:51;;;;;;;;;;;;;;;26.94;74.64;99452.84;4949634;28;19922;-88
2023/09/09 08:30:19;;;;;;;;;;;;;;;27.63;73.37;99567.19;4949842;28;19914;-88
2023/09/09 08:32:45;;;;;;;;;;;;;;;27.40;71.31;99190.03;4951733;28;20795;-87
2023/09/09 08:35:10;;;;;;;;;;;;;;;28.48;71.20;99564.88;4950120;28;19978;-87
2023/09/09 08:37:35;;;;;;;;;;;;;;;29.17;68.23;99453.81;4949520;28;19922;-88
2023/09/09 08:40:00;;;;;;;;;;;;;;;29.53;65.95;99274.09;4933884;29;19926;-87
2023/09/09 08:42:44;;;;;;;;;;;;;;;29.37;65.15;99142.63;4950790;28;19924;-88
2023/09/09 08:45:23;;;;;;;;;;;;;;;27.88;65.21;98773.38;4950797;28;19914;-88
2023/09/09 08:47:50;;;;;;;;;;;;;;;28.85;66.58;99411.00;4946339;28;20296;-88
2023/09/09 08:50:18;;;;;;;;;;;;;;;28.53;66.68;99251.78;4953701;28;19918;-89
2023/09/09 08:52:43;;;;;;;;;;;;;;;28.43;65.49;99114.81;4937574;29;19915;-89
2023/09/09 08:55:09;;;;;;;;;;;;;;;26.71;67.56;98862.59;4953506;28;19934;-89
2023/09/09 08:57:34;;;;;;;;;;;;;;;28.49;67.72;99560.97;4936878;28;19950;-89
2023/09/09 09:00:01;;;;;;;;;;;;;;;28.33;65.20;99082.19;4953582;28;19914;-89
2023/09/09 09:02:27;;;;;;;;;;;;;;;28.50;64.34;99046.56;4953306;28;19918;-89
2023/09/09 09:04:54;;;;;;;;;;;;;;;28.79;65.01;99289.50;4953421;28;19914;-88
2023/09/09 09:07:20;;;;;;;;;;;;;;;28.31;65.58;99213.44;4952213;28;20420;-89
2023/09/09 09:09:45;;;;;;;;;;;;;;;28.65;65.17;99275.09;4952995;28;19934;-88
2023/09/09 09:12:11;;;;;;;;;;;;;;;29.66;62.25;99204.34;4954563;28;20381;-88
2023/09/09 09:14:44;;;;;;;;;;;;;;;30.36;62.29;99407.84;4949882;28;19974;-86
2023/09/09 09:17:10;;;;;;;;;;;;;;;29.34;60.69;98750.28;4947244;28;19914;-86
2023/09/09 09:19:36;;;;;;;;;;;;;;;28.23;63.32;98832.84;4937956;28;19921;-86
2023/09/09 09:22:01;;;;;;;;;;;;;;;28.53;63.79;99067.88;4953303;28;19918;-88
2023/09/09 09:24:39;;;;;;;;;;;;;;;29.54;61.14;99062.06;4953542;28;19922;-88
2023/09/09 09:27:08;;;;;;;;;;;;;;;30.00;60.97;99254.94;4952697;28;20799;-88
2023/09/09 09:29:38;;;;;;;;;;;;;;;29.49;61.36;99088.94;4952702;28;19956;-88
2023/09/09 09:32:03;;;;;;;;;;;;;;;29.64;59.96;98939.88;4952983;28;19974;-89
2023/09/09 09:34:32;;;;;;;;;;;;;;;29.28;60.42;98987.16;4952893;28;20384;-88
2023/09/09 09:36:58;;;;;;;;;;;;;;;29.88;62.31;99407.72;4953272;28;19914;-88
2023/09/09 09:39:23;;;;;;;;;;;;;;;30.91;62.64;99740.47;4936848;28;19918;-88
2023/09/09 09:41:49;;;;;;;;;;;;;;;31.26;60.92;99544.75;4949326;28;20722;-88
2023/09/09 09:44:18;;;;;;;;;;;;;;;31.14;60.96;99451.72;4956982;28;19914;-87
2023/09/09 09:46:57;;;;;;;;;;;;;;;31.95;58.71;99447.81;4965056;28;19915;-86
2023/09/09 09:49:31;;;;;;;;;;;;;;;32.65;55.52;99195.00;4950033;28;19961;-86
2023/09/09 09:51:56;;;;;;;;;;;;;;;32.77;56.14;99261.28;4968310;28;19914;-86
2023/09/09 09:54:21;;;;;;;;;;;;;;;32.98;55.03;99169.91;4952119;28;19914;-86
2023/09/09 09:56:47;;;;;;;;;;;;;;;33.15;51.12;98641.59;4935024;29;19926;-86
2023/09/09 09:59:12;;;;;;;;;;;;;;;33.19;51.91;98780.72;4951167;28;19914;-86
2023/09/09 10:01:39;;;;;;;;;;;;;;;32.68;49.78;98324.13;4936003;28;19949;-86
2023/09/09 10:04:05;;;;;;;;;;;;;;;32.66;48.46;98161.53;4952561;28;19914;-87
2023/09/09 10:06:33;;;;;;;;;;;;;;;29.73;51.15;97590.66;4951790;28;19914;-87
2023/09/09 10:09:11;;;;;;;;;;;;;;;30.65;51.23;98074.34;4952605;28;19915;-86
2023/09/09 10:11:41;;;;;;;;;;;;;;;31.61;51.59;98604.09;4952373;28;20392;-87
2023/09/09 10:14:11;;;;;;;;;;;;;;;29.86;53.26;98188.78;4952613;28;19925;-87
2023/09/09 10:16:38;;;;;;;;;;;;;;;30.92;52.98;98535.31;4951743;28;19921;-86
2023/09/09 10:19:03;;;;;;;;;;;;;;;31.34;51.98;98529.34;4952627;28;19946;-86
2023/09/09 10:21:30;;;;;;;;;;;;;;;32.31;53.36;99122.50;4967755;28;20419;-89
2023/09/09 10:23:56;;;;;;;;;;;;;;;33.33;52.55;99274.44;4968075;28;20500;-89
2023/09/09 10:26:21;;;;;;;;;;;;;;;33.35;52.50;99164.28;4951267;28;19914;-89
2023/09/09 10:28:48;;;;;;;;;;;;;;;32.38;52.17;98736.97;4951237;28;19918;-89
2023/09/09 10:33:47;;;;;;;;;;;;;;;32.77;53.77;99170.91;4942509;28;19922;-75
2023/09/09 10:36:17;;;;;;;;;;;;;;;33.89;52.46;99363.03;4942773;28;19916;-74
2023/09/09 10:38:42;;;;;;;;;;;;;;;33.53;51.29;98960.84;4974317;28;20274;-75
2023/09/09 10:41:09;;;;;;;;;;;;;;;33.95;51.40;99150.41;4958661;28;19973;-76
2023/09/09 10:43:34;;;;;;;;;;;;;;;33.63;53.22;99292.31;4959984;28;19914;-75
2023/09/09 10:45:59;;;;;;;;;;;;;;;33.22;48.77;98417.84;4993548;23;20030;-79
2023/09/09 10:48:25;;;;;;;;;;;;;;;33.19;48.47;98360.50;4925396;29;19926;-79
2023/09/09 10:50:53;;;;;;;;;;;;;;;32.46;48.26;98047.63;4943134;28;20014;-80
2023/09/09 10:53:22;;;;;;;;;;;;;;;32.87;49.59;98564.44;4962785;28;19914;-77
2023/09/09 10:55:48;;;;;;;;;;;;;;;32.72;48.88;98385.75;4944026;28;20029;-77
2023/09/09 10:58:17;;;;;;;;;;;;;;;32.68;48.70;98297.28;4940054;29;20413;-78
2023/09/09 11:00:44;;;;;;;;;;;;;;;32.59;48.39;98249.81;4920004;29;19914;-77
2023/09/09 11:03:15;;;;;;;;;;;;;;;32.55;49.71;98561.81;4926553;29;19928;-78
2023/09/09 11:05:59;;;;;;;;;;;;;;;32.96;50.05;98774.25;4940832;28;19921;-79
2023/09/09 11:08:32;;;;;;;;;;;;;;;34.12;49.01;98997.00;4924614;29;19926;-79
2023/09/09 11:11:30;;;;;;;;;;;;;;;34.64;48.07;98929.22;4923560;29;19988;-77
2023/09/09 11:13:55;;;;;;;;;;;;;;;35.44;46.85;98998.72;4885498;29;19919;-78
2023/09/09 11:16:28;;;;;;;;;;;;;;;34.99;45.71;98540.91;4904079;29;20422;-77
2023/09/09 11:18:53;;;;;;;;;;;;;;;34.93;46.01;98620.03;4890988;29;19976;-77
2023/09/09 11:21:22;;;;;;;;;;;;;;;34.62;46.00;98443.91;4888118;29;20442;-77
2023/09/09 11:23:48;;;;;;;;;;;;;;;35.23;46.91;98900.13;4897880;29;19919;-76
2023/09/09 11:26:15;;;;;;;;;;;;;;;34.60;46.15;98507.16;4910520;29;19934;-77
2023/09/09 11:28:40;;;;;;;;;;;;;;;34.66;46.06;98541.72;4912244;29;19919;-75
2023/09/09 11:31:12;;;;;;;;;;;;;;;34.74;46.73;98648.69;4895750;29;19911;-77
2023/09/09 11:33:38;;;;;;;;;;;;;;;34.21;45.21;98058.97;4910666;29;19966;-78
2023/09/09 11:36:04;;;;;;;;;;;;;;;34.38;47.55;98689.72;4893628;29;19912;-76
2023/09/09 11:38:31;;;;;;;;;;;;;;;35.47;45.58;98743.53;4897180;29;19919;-75
2023/09/09 11:40:56;;;;;;;;;;;;;;;34.83;44.15;98208.56;4910858;29;19999;-78
2023/09/09 11:43:21;;;;;;;;;;;;;;;34.67;45.11;98344.59;4894160;29;19919;-77
2023/09/09 11:45:46;;;;;;;;;;;;;;;34.30;45.20;98147.22;4906188;29;20301;-78
2023/09/09 11:48:14;;;;;;;;;;;;;;;33.92;43.58;97782.00;4904380;29;19921;-78
2023/09/09 11:50:43;;;;;;;;;;;;;;;34.77;46.67;98767.13;4922998;29;19910;-78
2023/09/09 11:53:09;;;;;;;;;;;;;;;34.97;44.71;98424.06;4944357;28;19915;-78
2023/09/09 11:55:34;;;;;;;;;;;;;;;35.01;43.49;98216.19;4927388;29;19922;-77
2023/09/09 11:57:59;;;;;;;;;;;;;;;34.82;45.50;98486.88;4930560;29;19941;-75
2023/09/09 12:00:25;;;;;;;;;;;;;;;34.29;43.79;97960.13;4928707;29;19915;-75
2023/09/09 12:02:50;;;;;;;;;;;;;;;32.68;45.25;97495.56;4930624;29;19986;-76
2023/09/09 12:05:15;;;;;;;;;;;;;;;32.58;48.57;98187.47;4929306;29;19918;-76
2023/09/09 12:07:42;;;;;;;;;;;;;;;33.28;46.18;98141.84;4931623;29;19915;-77
2023/09/09 12:10:12;;;;;;;;;;;;;;;34.06;46.00;98438.03;4948454;29;19918;-78
2023/09/09 12:12:38;;;;;;;;;;;;;;;33.20;46.21;98038.72;4964128;28;19918;-77
2023/09/09 12:15:06;;;;;;;;;;;;;;;34.12;45.08;98340.88;4935196;29;19933;-77
2023/09/09 12:17:31;;;;;;;;;;;;;;;33.72;44.66;98077.53;4917207;29;20397;-78
2023/09/09 12:20:03;;;;;;;;;;;;;;;33.91;45.43;98234.25;4931892;29;19954;-78
2023/09/09 12:22:36;;;;;;;;;;;;;;;34.33;44.09;98205.41;4933220;29;19926;-77
2023/09/09 12:25:03;;;;;;;;;;;;;;;33.99;44.55;98072.59;4951686;28;19915;-77
2023/09/09 12:27:44;;;;;;;;;;;;;;;33.84;44.99;98165.78;4947379;28;19911;-78
2023/09/09 12:30:29;;;;;;;;;;;;;;;34.61;43.96;98281.63;4951123;28;19918;-76
2023/09/09 12:32:54;;;;;;;;;;;;;;;33.25;44.45;97787.97;4935185;29;19938;-76
2023/09/09 12:35:19;;;;;;;;;;;;;;;32.74;45.67;97837.31;4936509;29;19915;-77